UKLR/RWN METAR and TAF weather

Enter ICAO airport designator
Station Type Date Time Source
UKLR METAR 2021/04/16 15:00 UTC NOAA

UKLR 161500Z 25007MPS 9999 FEW014CB BKN014 05/03 Q1013 R29/190060 NOSIG


Station Type Date Time Source
UKLR Decoded METAR 2021/04/16 15:00 UTC NOAA

Rivne, Ukraine (UKLR) 50-35N 026-08E
Apr 16, 2021 - 11:00 AM EDT / 2021.04.16 1500 UTC
Wind: from the WSW (250 degrees) at 16 MPH (14 KT):0
Visibility: greater than 7 mile(s):0
Sky conditions: mostly cloudy
Weather: Cumulonimbus clouds observed
Temperature: 41 F (5 C)
Dew Point: 37 F (3 C)
Relative Humidity: 86%
Pressure (altimeter): 29.91 in. Hg (1013 hPa)
ob: UKLR 161500Z 25007MPS 9999 FEW014CB BKN014 05/03 Q1013 R29/190060 NOSIG
cycle: 15

Station Type Date Time Source
UKLR TAF 2019/08/16 12:15 UTC NOAA

TAF TAF UKLR 161105Z 1612/1821 35003MPS 9999 BKN020 SCT023CB

Example: see airport list